sensor_id;sensor_type;location;lat;lon;timestamp;P1;durP1;ratioP1;P2;durP2;ratioP2
65174;SDS011;51761;42.126;24.752;2023-04-06T00:01:02;16.10;;;9.80;;
65174;SDS011;51761;42.126;24.752;2023-04-06T00:03:28;14.93;;;10.15;;
65174;SDS011;51761;42.126;24.752;2023-04-06T00:05:53;13.35;;;9.13;;
65174;SDS011;51761;42.126;24.752;2023-04-06T00:08:19;14.18;;;9.25;;
65174;SDS011;51761;42.126;24.752;2023-04-06T00:10:46;13.23;;;8.82;;
65174;SDS011;51761;42.126;24.752;2023-04-06T00:13:12;14.15;;;9.18;;
65174;SDS011;51761;42.126;24.752;2023-04-06T00:15:37;13.77;;;9.50;;
65174;SDS011;51761;42.126;24.752;2023-04-06T00:18:03;14.45;;;8.68;;
65174;SDS011;51761;42.126;24.752;2023-04-06T00:20:28;16.92;;;10.30;;
65174;SDS011;51761;42.126;24.752;2023-04-06T00:22:54;14.68;;;8.90;;
65174;SDS011;51761;42.126;24.752;2023-04-06T00:25:20;16.20;;;10.65;;
65174;SDS011;51761;42.126;24.752;2023-04-06T00:27:45;15.85;;;9.70;;
65174;SDS011;51761;42.126;24.752;2023-04-06T00:30:10;15.95;;;9.68;;
65174;SDS011;51761;42.126;24.752;2023-04-06T00:32:36;14.45;;;8.75;;
65174;SDS011;51761;42.126;24.752;2023-04-06T00:35:02;14.27;;;9.95;;
65174;SDS011;51761;42.126;24.752;2023-04-06T00:37:29;14.43;;;9.30;;
65174;SDS011;51761;42.126;24.752;2023-04-06T00:39:54;15.02;;;8.95;;
65174;SDS011;51761;42.126;24.752;2023-04-06T00:42:20;14.60;;;9.23;;
65174;SDS011;51761;42.126;24.752;2023-04-06T00:44:51;16.48;;;9.38;;
65174;SDS011;51761;42.126;24.752;2023-04-06T00:47:21;13.85;;;8.05;;
65174;SDS011;51761;42.126;24.752;2023-04-06T00:49:47;16.95;;;10.15;;
65174;SDS011;51761;42.126;24.752;2023-04-06T00:52:13;15.70;;;9.80;;
65174;SDS011;51761;42.126;24.752;2023-04-06T00:54:38;16.60;;;9.07;;
65174;SDS011;51761;42.126;24.752;2023-04-06T00:57:04;13.35;;;8.75;;
65174;SDS011;51761;42.126;24.752;2023-04-06T00:59:30;16.45;;;8.68;;
65174;SDS011;51761;42.126;24.752;2023-04-06T01:01:56;16.38;;;10.02;;
65174;SDS011;51761;42.126;24.752;2023-04-06T01:04:22;16.80;;;9.68;;
65174;SDS011;51761;42.126;24.752;2023-04-06T01:06:48;13.60;;;8.73;;
65174;SDS011;51761;42.126;24.752;2023-04-06T01:09:14;13.30;;;9.15;;
65174;SDS011;51761;42.126;24.752;2023-04-06T01:11:40;15.48;;;9.25;;
65174;SDS011;51761;42.126;24.752;2023-04-06T01:14:05;17.20;;;9.55;;
65174;SDS011;51761;42.126;24.752;2023-04-06T01:16:31;15.00;;;8.48;;
65174;SDS011;51761;42.126;24.752;2023-04-06T01:18:57;15.23;;;9.85;;
65174;SDS011;51761;42.126;24.752;2023-04-06T01:21:22;15.23;;;9.70;;
65174;SDS011;51761;42.126;24.752;2023-04-06T01:23:48;16.17;;;9.43;;
65174;SDS011;51761;42.126;24.752;2023-04-06T01:26:14;15.85;;;9.43;;
65174;SDS011;51761;42.126;24.752;2023-04-06T01:28:39;13.05;;;8.73;;
65174;SDS011;51761;42.126;24.752;2023-04-06T01:31:08;16.38;;;9.45;;
65174;SDS011;51761;42.126;24.752;2023-04-06T01:33:34;14.55;;;9.40;;
65174;SDS011;51761;42.126;24.752;2023-04-06T01:36:00;14.10;;;9.18;;
65174;SDS011;51761;42.126;24.752;2023-04-06T01:38:26;12.80;;;8.20;;
65174;SDS011;51761;42.126;24.752;2023-04-06T01:40:51;13.23;;;8.52;;
65174;SDS011;51761;42.126;24.752;2023-04-06T01:43:17;14.45;;;8.98;;
65174;SDS011;51761;42.126;24.752;2023-04-06T01:45:43;15.02;;;9.82;;
65174;SDS011;51761;42.126;24.752;2023-04-06T01:48:08;16.77;;;9.25;;
65174;SDS011;51761;42.126;24.752;2023-04-06T01:50:34;15.63;;;8.98;;
65174;SDS011;51761;42.126;24.752;2023-04-06T01:53:00;16.88;;;9.20;;
65174;SDS011;51761;42.126;24.752;2023-04-06T01:55:25;15.73;;;9.35;;
65174;SDS011;51761;42.126;24.752;2023-04-06T01:57:51;18.05;;;9.93;;
65174;SDS011;51761;42.126;24.752;2023-04-06T02:00:17;17.02;;;9.80;;
65174;SDS011;51761;42.126;24.752;2023-04-06T02:02:42;14.82;;;9.18;;
65174;SDS011;51761;42.126;24.752;2023-04-06T02:05:08;16.42;;;9.75;;
65174;SDS011;51761;42.126;24.752;2023-04-06T02:07:33;18.35;;;10.57;;
65174;SDS011;51761;42.126;24.752;2023-04-06T02:09:59;16.40;;;9.95;;
65174;SDS011;51761;42.126;24.752;2023-04-06T02:12:25;20.67;;;10.80;;
65174;SDS011;51761;42.126;24.752;2023-04-06T02:14:50;15.60;;;9.77;;
65174;SDS011;51761;42.126;24.752;2023-04-06T02:17:16;17.33;;;10.18;;
65174;SDS011;51761;42.126;24.752;2023-04-06T02:19:42;19.23;;;11.05;;
65174;SDS011;51761;42.126;24.752;2023-04-06T02:22:07;15.18;;;9.70;;
65174;SDS011;51761;42.126;24.752;2023-04-06T02:24:33;18.27;;;10.68;;
65174;SDS011;51761;42.126;24.752;2023-04-06T02:26:58;18.77;;;10.55;;
65174;SDS011;51761;42.126;24.752;2023-04-06T02:29:25;16.98;;;10.07;;
65174;SDS011;51761;42.126;24.752;2023-04-06T02:31:51;16.13;;;10.50;;
65174;SDS011;51761;42.126;24.752;2023-04-06T02:34:16;18.80;;;10.55;;
65174;SDS011;51761;42.126;24.752;2023-04-06T02:36:45;19.77;;;10.45;;
65174;SDS011;51761;42.126;24.752;2023-04-06T02:39:11;15.55;;;10.05;;
65174;SDS011;51761;42.126;24.752;2023-04-06T02:41:38;21.02;;;11.38;;
65174;SDS011;51761;42.126;24.752;2023-04-06T02:44:03;18.42;;;10.07;;
65174;SDS011;51761;42.126;24.752;2023-04-06T02:46:31;17.15;;;10.07;;
65174;SDS011;51761;42.126;24.752;2023-04-06T02:48:56;16.48;;;10.30;;
65174;SDS011;51761;42.126;24.752;2023-04-06T02:51:25;17.55;;;10.68;;
65174;SDS011;51761;42.126;24.752;2023-04-06T02:53:50;20.83;;;11.20;;
65174;SDS011;51761;42.126;24.752;2023-04-06T02:56:16;23.17;;;11.55;;
65174;SDS011;51761;42.126;24.752;2023-04-06T02:58:41;20.45;;;11.55;;
65174;SDS011;51761;42.126;24.752;2023-04-06T03:01:07;20.05;;;11.40;;
65174;SDS011;51761;42.126;24.752;2023-04-06T03:03:32;20.83;;;12.00;;
65174;SDS011;51761;42.126;24.752;2023-04-06T03:05:58;17.25;;;10.80;;
65174;SDS011;51761;42.126;24.752;2023-04-06T03:08:25;18.83;;;10.52;;
65174;SDS011;51761;42.126;24.752;2023-04-06T03:10:50;15.90;;;9.77;;
65174;SDS011;51761;42.126;24.752;2023-04-06T03:13:16;18.75;;;10.82;;
65174;SDS011;51761;42.126;24.752;2023-04-06T03:15:41;17.33;;;9.82;;
65174;SDS011;51761;42.126;24.752;2023-04-06T03:18:07;19.63;;;11.68;;
65174;SDS011;51761;42.126;24.752;2023-04-06T03:20:32;15.98;;;9.70;;
65174;SDS011;51761;42.126;24.752;2023-04-06T03:22:58;19.85;;;12.13;;
65174;SDS011;51761;42.126;24.752;2023-04-06T03:25:24;19.17;;;11.55;;
65174;SDS011;51761;42.126;24.752;2023-04-06T03:27:50;19.25;;;10.90;;
65174;SDS011;51761;42.126;24.752;2023-04-06T03:30:15;20.40;;;10.55;;
65174;SDS011;51761;42.126;24.752;2023-04-06T03:32:44;22.08;;;11.18;;
65174;SDS011;51761;42.126;24.752;2023-04-06T03:35:09;18.33;;;10.43;;
65174;SDS011;51761;42.126;24.752;2023-04-06T03:37:35;17.42;;;11.07;;
65174;SDS011;51761;42.126;24.752;2023-04-06T03:40:01;20.48;;;11.90;;
65174;SDS011;51761;42.126;24.752;2023-04-06T03:42:26;18.63;;;11.35;;
65174;SDS011;51761;42.126;24.752;2023-04-06T03:44:52;21.40;;;11.07;;
65174;SDS011;51761;42.126;24.752;2023-04-06T03:47:17;23.48;;;11.75;;
65174;SDS011;51761;42.126;24.752;2023-04-06T03:49:43;22.70;;;12.65;;
65174;SDS011;51761;42.126;24.752;2023-04-06T03:52:08;19.25;;;11.02;;
65174;SDS011;51761;42.126;24.752;2023-04-06T03:54:34;21.60;;;11.52;;
65174;SDS011;51761;42.126;24.752;2023-04-06T03:57:00;26.05;;;13.60;;
65174;SDS011;51761;42.126;24.752;2023-04-06T03:59:26;21.75;;;11.65;;
65174;SDS011;51761;42.126;24.752;2023-04-06T04:01:51;19.48;;;10.60;;
65174;SDS011;51761;42.126;24.752;2023-04-06T04:04:17;21.63;;;12.07;;
65174;SDS011;51761;42.126;24.752;2023-04-06T04:06:42;19.05;;;10.73;;
65174;SDS011;51761;42.126;24.752;2023-04-06T04:09:08;19.05;;;10.90;;
65174;SDS011;51761;42.126;24.752;2023-04-06T04:11:33;17.88;;;10.60;;
65174;SDS011;51761;42.126;24.752;2023-04-06T04:13:59;19.95;;;11.40;;
65174;SDS011;51761;42.126;24.752;2023-04-06T04:16:24;27.25;;;12.40;;
65174;SDS011;51761;42.126;24.752;2023-04-06T04:18:50;20.70;;;10.63;;
65174;SDS011;51761;42.126;24.752;2023-04-06T04:21:15;19.20;;;10.52;;
65174;SDS011;51761;42.126;24.752;2023-04-06T04:23:41;16.25;;;9.65;;
65174;SDS011;51761;42.126;24.752;2023-04-06T04:26:06;18.20;;;9.52;;
65174;SDS011;51761;42.126;24.752;2023-04-06T04:28:32;19.70;;;10.25;;
65174;SDS011;51761;42.126;24.752;2023-04-06T04:30:57;18.00;;;9.68;;
65174;SDS011;51761;42.126;24.752;2023-04-06T04:33:23;19.80;;;10.55;;
65174;SDS011;51761;42.126;24.752;2023-04-06T04:35:48;17.40;;;9.77;;
65174;SDS011;51761;42.126;24.752;2023-04-06T04:38:14;14.98;;;8.75;;
65174;SDS011;51761;42.126;24.752;2023-04-06T04:40:39;17.13;;;10.07;;
65174;SDS011;51761;42.126;24.752;2023-04-06T04:43:05;14.98;;;8.35;;
65174;SDS011;51761;42.126;24.752;2023-04-06T04:45:30;18.27;;;9.95;;
65174;SDS011;51761;42.126;24.752;2023-04-06T04:47:56;17.15;;;10.18;;
65174;SDS011;51761;42.126;24.752;2023-04-06T04:50:21;15.70;;;9.57;;
65174;SDS011;51761;42.126;24.752;2023-04-06T04:52:47;20.35;;;9.77;;
65174;SDS011;51761;42.126;24.752;2023-04-06T04:55:13;24.33;;;10.05;;
65174;SDS011;51761;42.126;24.752;2023-04-06T04:57:38;21.73;;;9.57;;
65174;SDS011;51761;42.126;24.752;2023-04-06T05:00:04;18.67;;;10.13;;
65174;SDS011;51761;42.126;24.752;2023-04-06T05:02:30;15.35;;;9.43;;
65174;SDS011;51761;42.126;24.752;2023-04-06T05:04:56;14.57;;;8.88;;
65174;SDS011;51761;42.126;24.752;2023-04-06T05:07:21;20.55;;;8.60;;
65174;SDS011;51761;42.126;24.752;2023-04-06T05:09:47;23.98;;;10.10;;
65174;SDS011;51761;42.126;24.752;2023-04-06T05:12:13;17.05;;;9.10;;
65174;SDS011;51761;42.126;24.752;2023-04-06T05:14:39;17.42;;;8.80;;
65174;SDS011;51761;42.126;24.752;2023-04-06T05:17:04;17.15;;;8.75;;
65174;SDS011;51761;42.126;24.752;2023-04-06T05:19:30;13.82;;;8.18;;
65174;SDS011;51761;42.126;24.752;2023-04-06T05:21:56;19.88;;;9.35;;
65174;SDS011;51761;42.126;24.752;2023-04-06T05:24:21;15.65;;;8.65;;
65174;SDS011;51761;42.126;24.752;2023-04-06T05:26:47;15.68;;;8.50;;
65174;SDS011;51761;42.126;24.752;2023-04-06T05:29:14;13.90;;;8.65;;
65174;SDS011;51761;42.126;24.752;2023-04-06T05:31:40;15.98;;;8.60;;
65174;SDS011;51761;42.126;24.752;2023-04-06T05:34:05;14.60;;;8.63;;
65174;SDS011;51761;42.126;24.752;2023-04-06T05:36:31;14.13;;;8.73;;
65174;SDS011;51761;42.126;24.752;2023-04-06T05:38:57;15.93;;;8.65;;
65174;SDS011;51761;42.126;24.752;2023-04-06T05:41:23;14.85;;;9.18;;
65174;SDS011;51761;42.126;24.752;2023-04-06T05:43:49;19.70;;;9.90;;
65174;SDS011;51761;42.126;24.752;2023-04-06T05:46:14;13.15;;;8.90;;
65174;SDS011;51761;42.126;24.752;2023-04-06T05:48:40;15.57;;;8.73;;
65174;SDS011;51761;42.126;24.752;2023-04-06T05:51:05;13.68;;;7.40;;
65174;SDS011;51761;42.126;24.752;2023-04-06T05:53:31;17.58;;;8.38;;
65174;SDS011;51761;42.126;24.752;2023-04-06T05:56:00;16.70;;;8.98;;
65174;SDS011;51761;42.126;24.752;2023-04-06T05:58:26;16.13;;;8.70;;
65174;SDS011;51761;42.126;24.752;2023-04-06T06:00:56;13.63;;;7.95;;
65174;SDS011;51761;42.126;24.752;2023-04-06T06:03:24;12.98;;;7.45;;
65174;SDS011;51761;42.126;24.752;2023-04-06T06:05:50;12.68;;;7.20;;
65174;SDS011;51761;42.126;24.752;2023-04-06T06:08:15;14.52;;;8.30;;
65174;SDS011;51761;42.126;24.752;2023-04-06T06:10:41;11.00;;;7.00;;
65174;SDS011;51761;42.126;24.752;2023-04-06T06:13:06;12.45;;;7.40;;
65174;SDS011;51761;42.126;24.752;2023-04-06T06:15:32;14.02;;;8.15;;
65174;SDS011;51761;42.126;24.752;2023-04-06T06:17:57;11.98;;;7.25;;
65174;SDS011;51761;42.126;24.752;2023-04-06T06:20:23;11.30;;;7.30;;
65174;SDS011;51761;42.126;24.752;2023-04-06T06:22:50;13.82;;;7.15;;
65174;SDS011;51761;42.126;24.752;2023-04-06T06:25:15;14.43;;;6.95;;
65174;SDS011;51761;42.126;24.752;2023-04-06T06:27:41;11.18;;;7.45;;
65174;SDS011;51761;42.126;24.752;2023-04-06T06:30:07;10.68;;;7.38;;
65174;SDS011;51761;42.126;24.752;2023-04-06T06:32:33;10.25;;;6.65;;
65174;SDS011;51761;42.126;24.752;2023-04-06T06:34:58;13.07;;;7.25;;
65174;SDS011;51761;42.126;24.752;2023-04-06T06:37:24;10.30;;;6.53;;
65174;SDS011;51761;42.126;24.752;2023-04-06T06:39:49;11.02;;;6.72;;
65174;SDS011;51761;42.126;24.752;2023-04-06T06:42:15;12.18;;;6.97;;
65174;SDS011;51761;42.126;24.752;2023-04-06T06:44:40;8.60;;;6.20;;
65174;SDS011;51761;42.126;24.752;2023-04-06T06:47:06;10.07;;;7.32;;
65174;SDS011;51761;42.126;24.752;2023-04-06T06:49:31;10.98;;;6.93;;
65174;SDS011;51761;42.126;24.752;2023-04-06T06:51:57;8.95;;;6.40;;
65174;SDS011;51761;42.126;24.752;2023-04-06T06:54:22;14.98;;;6.50;;
65174;SDS011;51761;42.126;24.752;2023-04-06T06:56:48;14.27;;;6.72;;
65174;SDS011;51761;42.126;24.752;2023-04-06T06:59:13;11.75;;;6.53;;
65174;SDS011;51761;42.126;24.752;2023-04-06T07:01:41;13.52;;;7.10;;
65174;SDS011;51761;42.126;24.752;2023-04-06T07:04:06;9.95;;;6.55;;
65174;SDS011;51761;42.126;24.752;2023-04-06T07:06:34;13.57;;;7.88;;
65174;SDS011;51761;42.126;24.752;2023-04-06T07:09:00;13.02;;;7.75;;
65174;SDS011;51761;42.126;24.752;2023-04-06T07:11:26;11.93;;;7.32;;
65174;SDS011;51761;42.126;24.752;2023-04-06T07:13:51;16.65;;;8.77;;
65174;SDS011;51761;42.126;24.752;2023-04-06T07:16:17;14.50;;;7.85;;
65174;SDS011;51761;42.126;24.752;2023-04-06T07:18:42;16.17;;;8.07;;
65174;SDS011;51761;42.126;24.752;2023-04-06T07:21:08;10.40;;;7.13;;
65174;SDS011;51761;42.126;24.752;2023-04-06T07:23:34;13.35;;;7.70;;
65174;SDS011;51761;42.126;24.752;2023-04-06T07:26:00;12.93;;;7.72;;
65174;SDS011;51761;42.126;24.752;2023-04-06T07:28:25;13.45;;;7.72;;
65174;SDS011;51761;42.126;24.752;2023-04-06T07:30:51;12.45;;;7.63;;
65174;SDS011;51761;42.126;24.752;2023-04-06T07:33:16;21.73;;;7.00;;
65174;SDS011;51761;42.126;24.752;2023-04-06T07:35:42;11.07;;;6.53;;
65174;SDS011;51761;42.126;24.752;2023-04-06T07:38:08;12.50;;;6.30;;
65174;SDS011;51761;42.126;24.752;2023-04-06T07:40:33;9.35;;;5.90;;
65174;SDS011;51761;42.126;24.752;2023-04-06T07:42:58;10.55;;;6.28;;
65174;SDS011;51761;42.126;24.752;2023-04-06T07:45:24;8.40;;;5.45;;
65174;SDS011;51761;42.126;24.752;2023-04-06T07:47:50;9.15;;;5.80;;
65174;SDS011;51761;42.126;24.752;2023-04-06T07:50:15;9.35;;;6.18;;
65174;SDS011;51761;42.126;24.752;2023-04-06T07:52:41;10.13;;;5.97;;
65174;SDS011;51761;42.126;24.752;2023-04-06T07:55:07;8.75;;;5.60;;
65174;SDS011;51761;42.126;24.752;2023-04-06T07:57:32;14.75;;;6.75;;
65174;SDS011;51761;42.126;24.752;2023-04-06T07:59:58;13.18;;;7.15;;
65174;SDS011;51761;42.126;24.752;2023-04-06T08:02:23;8.68;;;6.45;;
65174;SDS011;51761;42.126;24.752;2023-04-06T08:04:49;9.68;;;5.63;;
65174;SDS011;51761;42.126;24.752;2023-04-06T08:07:14;10.68;;;5.95;;
65174;SDS011;51761;42.126;24.752;2023-04-06T08:09:40;9.38;;;6.47;;
65174;SDS011;51761;42.126;24.752;2023-04-06T08:12:05;8.38;;;5.45;;
65174;SDS011;51761;42.126;24.752;2023-04-06T08:14:31;9.27;;;5.93;;
65174;SDS011;51761;42.126;24.752;2023-04-06T08:16:57;10.90;;;6.35;;
65174;SDS011;51761;42.126;24.752;2023-04-06T08:19:22;10.93;;;6.00;;
65174;SDS011;51761;42.126;24.752;2023-04-06T08:21:48;8.63;;;6.30;;
65174;SDS011;51761;42.126;24.752;2023-04-06T08:24:14;16.52;;;7.88;;
65174;SDS011;51761;42.126;24.752;2023-04-06T08:26:39;13.32;;;6.90;;
65174;SDS011;51761;42.126;24.752;2023-04-06T08:29:05;14.82;;;6.38;;
65174;SDS011;51761;42.126;24.752;2023-04-06T08:31:34;8.40;;;6.38;;
65174;SDS011;51761;42.126;24.752;2023-04-06T08:34:01;9.88;;;6.07;;
65174;SDS011;51761;42.126;24.752;2023-04-06T08:36:26;9.80;;;6.75;;
65174;SDS011;51761;42.126;24.752;2023-04-06T08:38:52;12.00;;;6.97;;
65174;SDS011;51761;42.126;24.752;2023-04-06T08:41:19;12.68;;;6.43;;
65174;SDS011;51761;42.126;24.752;2023-04-06T08:43:49;7.78;;;5.50;;
65174;SDS011;51761;42.126;24.752;2023-04-06T08:46:17;10.20;;;6.60;;
65174;SDS011;51761;42.126;24.752;2023-04-06T08:48:43;13.15;;;6.22;;
65174;SDS011;51761;42.126;24.752;2023-04-06T08:51:10;9.82;;;6.15;;
65174;SDS011;51761;42.126;24.752;2023-04-06T08:53:36;13.13;;;6.97;;
65174;SDS011;51761;42.126;24.752;2023-04-06T08:56:02;17.55;;;9.07;;
65174;SDS011;51761;42.126;24.752;2023-04-06T08:58:32;10.82;;;6.75;;
65174;SDS011;51761;42.126;24.752;2023-04-06T09:01:00;9.68;;;6.38;;
65174;SDS011;51761;42.126;24.752;2023-04-06T09:03:28;17.65;;;6.97;;
65174;SDS011;51761;42.126;24.752;2023-04-06T09:05:55;8.73;;;5.93;;
65174;SDS011;51761;42.126;24.752;2023-04-06T09:08:21;10.18;;;5.82;;
65174;SDS011;51761;42.126;24.752;2023-04-06T09:10:47;11.13;;;6.63;;
65174;SDS011;51761;42.126;24.752;2023-04-06T09:13:13;11.77;;;6.25;;
65174;SDS011;51761;42.126;24.752;2023-04-06T09:15:39;9.80;;;6.28;;
65174;SDS011;51761;42.126;24.752;2023-04-06T09:18:05;8.48;;;6.00;;
65174;SDS011;51761;42.126;24.752;2023-04-06T09:20:30;11.00;;;6.00;;
65174;SDS011;51761;42.126;24.752;2023-04-06T09:22:56;12.48;;;6.00;;
65174;SDS011;51761;42.126;24.752;2023-04-06T09:25:22;11.13;;;6.00;;
65174;SDS011;51761;42.126;24.752;2023-04-06T09:28:00;10.60;;;6.50;;
65174;SDS011;51761;42.126;24.752;2023-04-06T09:30:27;14.55;;;6.65;;
65174;SDS011;51761;42.126;24.752;2023-04-06T09:32:54;7.97;;;5.55;;
65174;SDS011;51761;42.126;24.752;2023-04-06T09:35:21;8.55;;;5.45;;
65174;SDS011;51761;42.126;24.752;2023-04-06T09:37:51;8.27;;;5.53;;
65174;SDS011;51761;42.126;24.752;2023-04-06T09:40:18;9.85;;;6.72;;
65174;SDS011;51761;42.126;24.752;2023-04-06T09:42:47;8.95;;;6.22;;
65174;SDS011;51761;42.126;24.752;2023-04-06T09:45:15;8.00;;;5.43;;
65174;SDS011;51761;42.126;24.752;2023-04-06T09:47:44;7.13;;;4.53;;
65174;SDS011;51761;42.126;24.752;2023-04-06T09:50:11;5.25;;;4.30;;
65174;SDS011;51761;42.126;24.752;2023-04-06T09:52:56;7.15;;;3.72;;
65174;SDS011;51761;42.126;24.752;2023-04-06T09:55:42;5.82;;;4.18;;
65174;SDS011;51761;42.126;24.752;2023-04-06T09:58:09;5.57;;;3.88;;
65174;SDS011;51761;42.126;24.752;2023-04-06T10:05:52;8.20;;;4.60;;
65174;SDS011;51761;42.126;24.752;2023-04-06T10:08:26;7.85;;;4.85;;
65174;SDS011;51761;42.126;24.752;2023-04-06T10:10:53;6.20;;;4.20;;
65174;SDS011;51761;42.126;24.752;2023-04-06T10:13:20;11.30;;;6.72;;
65174;SDS011;51761;42.126;24.752;2023-04-06T10:15:45;7.72;;;4.75;;
65174;SDS011;51761;42.126;24.752;2023-04-06T10:18:12;7.85;;;4.20;;
65174;SDS011;51761;42.126;24.752;2023-04-06T10:20:39;4.88;;;3.60;;
65174;SDS011;51761;42.126;24.752;2023-04-06T10:23:33;8.07;;;4.13;;
65174;SDS011;51761;42.126;24.752;2023-04-06T10:26:00;8.10;;;4.15;;
65174;SDS011;51761;42.126;24.752;2023-04-06T10:28:33;5.68;;;3.83;;
65174;SDS011;51761;42.126;24.752;2023-04-06T10:31:01;6.43;;;4.20;;
65174;SDS011;51761;42.126;24.752;2023-04-06T10:33:29;6.75;;;4.50;;
65174;SDS011;51761;42.126;24.752;2023-04-06T10:35:55;8.07;;;3.80;;
65174;SDS011;51761;42.126;24.752;2023-04-06T10:38:20;6.10;;;3.60;;
65174;SDS011;51761;42.126;24.752;2023-04-06T10:40:47;5.82;;;4.57;;
65174;SDS011;51761;42.126;24.752;2023-04-06T10:43:18;9.45;;;4.53;;
65174;SDS011;51761;42.126;24.752;2023-04-06T10:45:44;8.07;;;4.50;;
65174;SDS011;51761;42.126;24.752;2023-04-06T10:48:19;5.57;;;4.00;;
65174;SDS011;51761;42.126;24.752;2023-04-06T10:50:46;6.03;;;4.00;;
65174;SDS011;51761;42.126;24.752;2023-04-06T10:56:14;8.32;;;4.65;;
65174;SDS011;51761;42.126;24.752;2023-04-06T10:58:45;10.25;;;5.30;;
65174;SDS011;51761;42.126;24.752;2023-04-06T11:01:18;7.18;;;4.63;;
65174;SDS011;51761;42.126;24.752;2023-04-06T11:06:21;5.80;;;3.83;;
65174;SDS011;51761;42.126;24.752;2023-04-06T11:08:49;7.32;;;4.63;;
65174;SDS011;51761;42.126;24.752;2023-04-06T11:11:16;5.18;;;3.75;;
65174;SDS011;51761;42.126;24.752;2023-04-06T11:13:44;8.80;;;4.10;;
65174;SDS011;51761;42.126;24.752;2023-04-06T11:16:17;6.20;;;4.38;;
65174;SDS011;51761;42.126;24.752;2023-04-06T11:18:47;7.25;;;4.65;;
65174;SDS011;51761;42.126;24.752;2023-04-06T11:21:15;7.88;;;4.97;;
65174;SDS011;51761;42.126;24.752;2023-04-06T11:23:41;6.65;;;4.75;;
65174;SDS011;51761;42.126;24.752;2023-04-06T11:26:12;11.13;;;4.47;;
65174;SDS011;51761;42.126;24.752;2023-04-06T11:28:39;5.55;;;3.88;;
65174;SDS011;51761;42.126;24.752;2023-04-06T11:31:06;6.63;;;4.72;;
65174;SDS011;51761;42.126;24.752;2023-04-06T11:33:36;6.32;;;4.10;;
65174;SDS011;51761;42.126;24.752;2023-04-06T11:36:03;7.07;;;4.53;;
65174;SDS011;51761;42.126;24.752;2023-04-06T11:38:29;12.60;;;4.10;;
65174;SDS011;51761;42.126;24.752;2023-04-06T11:40:55;9.23;;;4.43;;
65174;SDS011;51761;42.126;24.752;2023-04-06T11:43:30;5.65;;;3.97;;
65174;SDS011;51761;42.126;24.752;2023-04-06T11:45:59;8.25;;;4.35;;
65174;SDS011;51761;42.126;24.752;2023-04-06T11:48:29;8.35;;;4.15;;
65174;SDS011;51761;42.126;24.752;2023-04-06T11:50:58;8.65;;;5.00;;
65174;SDS011;51761;42.126;24.752;2023-04-06T11:53:29;9.52;;;5.38;;
65174;SDS011;51761;42.126;24.752;2023-04-06T11:55:55;7.53;;;4.53;;
65174;SDS011;51761;42.126;24.752;2023-04-06T11:58:21;7.32;;;4.93;;
65174;SDS011;51761;42.126;24.752;2023-04-06T12:00:47;6.78;;;4.40;;
65174;SDS011;51761;42.126;24.752;2023-04-06T12:03:12;7.72;;;5.35;;
65174;SDS011;51761;42.126;24.752;2023-04-06T12:05:38;9.52;;;4.78;;
65174;SDS011;51761;42.126;24.752;2023-04-06T12:08:04;7.72;;;5.15;;
65174;SDS011;51761;42.126;24.752;2023-04-06T12:10:30;11.52;;;4.85;;
65174;SDS011;51761;42.126;24.752;2023-04-06T12:12:55;29.05;;;14.45;;
65174;SDS011;51761;42.126;24.752;2023-04-06T12:15:21;14.02;;;6.80;;
65174;SDS011;51761;42.126;24.752;2023-04-06T12:17:47;9.05;;;5.25;;
65174;SDS011;51761;42.126;24.752;2023-04-06T12:20:12;8.68;;;6.32;;
65174;SDS011;51761;42.126;24.752;2023-04-06T12:22:38;7.75;;;5.68;;
65174;SDS011;51761;42.126;24.752;2023-04-06T12:25:05;8.80;;;5.95;;
65174;SDS011;51761;42.126;24.752;2023-04-06T12:27:31;10.20;;;5.55;;
65174;SDS011;51761;42.126;24.752;2023-04-06T12:29:57;8.48;;;5.88;;
65174;SDS011;51761;42.126;24.752;2023-04-06T12:32:23;8.75;;;5.80;;
65174;SDS011;51761;42.126;24.752;2023-04-06T12:34:49;9.10;;;6.45;;
65174;SDS011;51761;42.126;24.752;2023-04-06T12:37:16;9.82;;;5.95;;
65174;SDS011;51761;42.126;24.752;2023-04-06T12:39:41;9.10;;;5.82;;
65174;SDS011;51761;42.126;24.752;2023-04-06T12:42:09;9.95;;;5.85;;
65174;SDS011;51761;42.126;24.752;2023-04-06T12:44:35;10.90;;;6.20;;
65174;SDS011;51761;42.126;24.752;2023-04-06T12:47:00;9.70;;;5.50;;
65174;SDS011;51761;42.126;24.752;2023-04-06T12:49:26;7.68;;;5.63;;
65174;SDS011;51761;42.126;24.752;2023-04-06T12:51:51;10.48;;;5.63;;
65174;SDS011;51761;42.126;24.752;2023-04-06T12:54:17;7.75;;;5.20;;
65174;SDS011;51761;42.126;24.752;2023-04-06T12:56:42;7.35;;;5.28;;
65174;SDS011;51761;42.126;24.752;2023-04-06T12:59:08;8.40;;;5.68;;
65174;SDS011;51761;42.126;24.752;2023-04-06T13:01:33;9.57;;;5.57;;
65174;SDS011;51761;42.126;24.752;2023-04-06T13:03:59;8.30;;;5.60;;
65174;SDS011;51761;42.126;24.752;2023-04-06T13:06:24;9.38;;;6.28;;
65174;SDS011;51761;42.126;24.752;2023-04-06T13:08:52;11.27;;;5.78;;
65174;SDS011;51761;42.126;24.752;2023-04-06T13:11:18;19.52;;;6.35;;
65174;SDS011;51761;42.126;24.752;2023-04-06T13:13:45;16.25;;;5.95;;
65174;SDS011;51761;42.126;24.752;2023-04-06T13:16:11;15.40;;;5.70;;
65174;SDS011;51761;42.126;24.752;2023-04-06T13:18:36;15.85;;;6.40;;
65174;SDS011;51761;42.126;24.752;2023-04-06T13:21:04;10.07;;;6.22;;
65174;SDS011;51761;42.126;24.752;2023-04-06T13:23:30;10.27;;;5.70;;
65174;SDS011;51761;42.126;24.752;2023-04-06T13:26:05;11.55;;;6.68;;
65174;SDS011;51761;42.126;24.752;2023-04-06T13:28:33;10.63;;;6.07;;
65174;SDS011;51761;42.126;24.752;2023-04-06T13:30:59;11.95;;;6.15;;
65174;SDS011;51761;42.126;24.752;2023-04-06T13:33:28;13.43;;;6.85;;
65174;SDS011;51761;42.126;24.752;2023-04-06T13:35:55;10.25;;;5.93;;
65174;SDS011;51761;42.126;24.752;2023-04-06T13:38:20;13.00;;;7.18;;
65174;SDS011;51761;42.126;24.752;2023-04-06T13:40:46;9.38;;;5.93;;
65174;SDS011;51761;42.126;24.752;2023-04-06T13:43:12;15.57;;;8.25;;
65174;SDS011;51761;42.126;24.752;2023-04-06T13:45:37;14.02;;;6.97;;
65174;SDS011;51761;42.126;24.752;2023-04-06T13:48:03;16.60;;;8.07;;
65174;SDS011;51761;42.126;24.752;2023-04-06T13:50:29;15.70;;;8.80;;
65174;SDS011;51761;42.126;24.752;2023-04-06T13:52:55;13.45;;;6.97;;
65174;SDS011;51761;42.126;24.752;2023-04-06T13:55:21;11.38;;;7.10;;
65174;SDS011;51761;42.126;24.752;2023-04-06T13:57:49;11.68;;;6.35;;
65174;SDS011;51761;42.126;24.752;2023-04-06T14:00:15;10.43;;;6.15;;
65174;SDS011;51761;42.126;24.752;2023-04-06T14:02:41;9.05;;;5.85;;
65174;SDS011;51761;42.126;24.752;2023-04-06T14:05:06;11.80;;;5.80;;
65174;SDS011;51761;42.126;24.752;2023-04-06T14:07:32;12.75;;;5.82;;
65174;SDS011;51761;42.126;24.752;2023-04-06T14:09:58;12.15;;;6.40;;
65174;SDS011;51761;42.126;24.752;2023-04-06T14:12:23;12.25;;;5.95;;
65174;SDS011;51761;42.126;24.752;2023-04-06T14:14:49;18.50;;;7.40;;
65174;SDS011;51761;42.126;24.752;2023-04-06T14:17:15;9.35;;;5.30;;
65174;SDS011;51761;42.126;24.752;2023-04-06T14:19:40;9.55;;;5.40;;
65174;SDS011;51761;42.126;24.752;2023-04-06T14:22:06;12.82;;;5.50;;
65174;SDS011;51761;42.126;24.752;2023-04-06T14:24:33;10.00;;;5.50;;
65174;SDS011;51761;42.126;24.752;2023-04-06T14:26:59;7.88;;;6.00;;
65174;SDS011;51761;42.126;24.752;2023-04-06T14:29:26;11.32;;;6.40;;